Main page


Airports :

Curaçao, Netherlands Antilles

Curaçao International Airport

latitude: 12-12N, longitude: 068-58W, elevation: 9 m

Current weather observation

The report was made 48 minutes ago, at 17:00 UTC
Wind 15 kt from the East/Southeast, varying between East and Southeast
Temperature 30°C
Humidity 52%
Pressure 1012 hPa
Visibility 10 km or more
Few clouds at a height of 3000 ft

METAR: TNCC 201700Z 11015KT 080V140 9999 FEW030 30/19 Q1012 NOSIG

Time: 13:48 (17:48 UTC)


The report was made 1 hour and 48 minutes ago, at 16:00 UTC
Forecast valid from 20 at 18 UTC to 21 at 18 UTC
Wind 15 kt from the East
Visibility 10 km or more
Few clouds at a height of 2500 ft

TAF: TNCC 201600Z 2018/2118 10015KT 9999 FEW025

Weather observations and forecasts of more than 4000 airports (METAR and TAF reports).

The available stations are represented by yellow and red dots on the map.

Hover mouse over dot to see the name of the station.

Then click to see weather observations and forecasts.

To change the map : click on the green buttons with a black cross to zoom in, on the green button with a dash to zoom out, or on the green arrows for adjacent maps.